createdAt,value
2016-12-15T00:00:59.725Z,7.6
2016-12-15T00:01:59.716Z,7.67
2016-12-15T00:03:00.009Z,7.6
2016-12-15T00:03:59.672Z,7.5
2016-12-15T00:04:59.659Z,7.58
2016-12-15T00:05:59.643Z,7.62
2016-12-15T00:06:59.622Z,7.55
2016-12-15T00:07:59.660Z,7.58
2016-12-15T00:08:59.591Z,7.58
2016-12-15T00:09:59.624Z,7.56
2016-12-15T00:10:59.550Z,7.49
2016-12-15T00:11:59.530Z,7.49
2016-12-15T00:12:59.830Z,7.45
2016-12-15T00:13:59.503Z,7.42
2016-12-15T00:14:59.478Z,7.37
2016-12-15T00:15:59.463Z,7.35
2016-12-15T00:16:59.442Z,7.27
2016-12-15T00:17:59.627Z,7.32
2016-12-15T00:18:59.405Z,7.2
2016-12-15T00:19:59.704Z,7.13
2016-12-15T00:20:59.373Z,7.15
2016-12-15T00:21:59.360Z,7.15
2016-12-15T00:22:59.338Z,7.12
2016-12-15T00:23:59.324Z,7.05
2016-12-15T00:24:59.302Z,7.02
2016-12-15T00:25:59.287Z,6.97
2016-12-15T00:26:59.267Z,6.98
2016-12-15T00:27:59.252Z,6.95
2016-12-15T00:28:59.229Z,7.01
2016-12-15T00:29:59.215Z,6.89
2016-12-15T00:30:59.198Z,6.86
2016-12-15T00:31:59.185Z,6.9
2016-12-15T00:32:59.170Z,6.86
2016-12-15T00:33:59.145Z,6.83
2016-12-15T00:34:59.124Z,6.76
2016-12-15T00:35:59.111Z,6.8
2016-12-15T00:36:59.088Z,6.71
2016-12-15T00:37:59.071Z,6.79
2016-12-15T00:38:59.058Z,6.79
2016-12-15T00:39:59.036Z,6.76
2016-12-15T00:40:59.018Z,6.73
2016-12-15T00:41:59.004Z,6.73
2016-12-15T00:42:58.982Z,6.66
2016-12-15T00:43:58.964Z,6.63
2016-12-15T00:44:58.950Z,6.53
2016-12-15T00:45:58.929Z,6.59
2016-12-15T00:46:58.915Z,6.51
2016-12-15T00:47:58.905Z,6.58
2016-12-15T00:48:58.874Z,6.47
2016-12-15T00:49:59.174Z,6.41
2016-12-15T00:50:59.159Z,6.35
2016-12-15T00:51:58.827Z,6.29
2016-12-15T00:52:58.807Z,6.33
2016-12-15T00:53:58.794Z,6.26
2016-12-15T00:54:58.769Z,6.21
2016-12-15T00:55:58.752Z,6.13
2016-12-15T00:56:58.738Z,6.09
2016-12-15T00:57:58.717Z,6.11
2016-12-15T00:58:58.698Z,6.1
2016-12-15T00:59:58.705Z,6.09
2016-12-15T01:00:58.983Z,5.98
2016-12-15T01:01:58.693Z,6.03
2016-12-15T01:02:58.629Z,6.07
2016-12-15T01:03:58.607Z,5.88
2016-12-15T01:04:58.593Z,6.03
2016-12-15T01:05:58.577Z,5.92
2016-12-15T01:06:58.602Z,5.93
2016-12-15T01:07:58.541Z,5.85
2016-12-15T01:08:58.521Z,5.81
2016-12-15T01:09:58.502Z,5.91
2016-12-15T01:10:58.814Z,5.91
2016-12-15T01:11:58.464Z,5.88
2016-12-15T01:12:58.449Z,5.78
2016-12-15T01:13:58.427Z,5.88
2016-12-15T01:14:58.407Z,5.83
2016-12-15T01:15:58.398Z,5.81
2016-12-15T01:16:58.372Z,5.83
2016-12-15T01:17:58.673Z,5.78
2016-12-15T01:18:58.338Z,5.71
2016-12-15T01:19:58.321Z,5.7
2016-12-15T01:20:58.301Z,5.67
2016-12-15T01:21:58.598Z,5.7
2016-12-15T01:22:58.270Z,5.74
2016-12-15T01:23:58.871Z,5.74
2016-12-15T01:24:58.277Z,5.74
2016-12-15T01:25:58.524Z,5.68
2016-12-15T01:26:58.196Z,5.64
2016-12-15T01:27:58.203Z,5.6
2016-12-15T01:28:58.153Z,5.53
2016-12-15T01:29:58.135Z,5.57
2016-12-15T01:30:58.121Z,5.56
2016-12-15T01:31:58.106Z,5.6
2016-12-15T01:32:58.079Z,5.56
2016-12-15T01:33:58.058Z,5.59
2016-12-15T01:34:58.045Z,5.57
2016-12-15T01:35:58.024Z,5.56
2016-12-15T01:36:58.004Z,5.49
2016-12-15T01:37:57.995Z,5.5
2016-12-15T01:38:57.970Z,5.5
2016-12-15T01:39:57.948Z,5.52
2016-12-15T01:40:57.938Z,5.5
2016-12-15T01:41:57.917Z,5.46
2016-12-15T01:42:57.897Z,5.49
2016-12-15T01:43:57.879Z,5.43
2016-12-15T01:44:57.863Z,5.46
2016-12-15T01:45:58.156Z,5.43
2016-12-15T01:46:57.827Z,5.49
2016-12-15T01:47:57.805Z,5.46
2016-12-15T01:48:57.785Z,5.31
2016-12-15T01:49:57.776Z,5.34
2016-12-15T01:50:57.747Z,5.43
2016-12-15T01:51:57.729Z,5.35
2016-12-15T01:52:57.711Z,5.31
2016-12-15T01:53:57.692Z,5.28
2016-12-15T01:54:57.675Z,5.27
2016-12-15T01:55:57.972Z,5.22
2016-12-15T01:56:57.661Z,5.25
2016-12-15T01:57:57.617Z,5.17
2016-12-15T01:58:57.609Z,5.16
2016-12-15T01:59:57.580Z,5.04
2016-12-15T02:00:57.560Z,5.05
2016-12-15T02:01:57.858Z,5.05
2016-12-15T02:02:57.521Z,5.02
2016-12-15T02:03:57.556Z,4.98
2016-12-15T02:04:57.810Z,4.96
2016-12-15T02:05:57.471Z,4.95
2016-12-15T02:06:57.451Z,4.98
2016-12-15T02:07:57.431Z,5.02
2016-12-15T02:08:57.411Z,5.02
2016-12-15T02:09:57.399Z,4.89
2016-12-15T02:10:57.376Z,4.89
2016-12-15T02:11:57.410Z,4.77
2016-12-15T02:12:57.337Z,4.8
2016-12-15T02:13:57.320Z,4.84
2016-12-15T02:14:57.303Z,4.8
2016-12-15T02:15:57.282Z,4.76
2016-12-15T02:16:57.257Z,4.84
2016-12-15T02:17:57.446Z,4.77
2016-12-15T02:18:57.223Z,4.91
2016-12-15T02:19:57.203Z,4.79
2016-12-15T02:20:57.499Z,4.79
2016-12-15T02:21:57.174Z,4.83
2016-12-15T02:22:57.154Z,4.79
2016-12-15T02:23:57.127Z,4.73
2016-12-15T02:24:57.116Z,4.73
2016-12-15T02:25:57.092Z,4.77
2016-12-15T02:26:57.078Z,4.75
2016-12-15T02:27:57.058Z,4.72
2016-12-15T02:28:57.032Z,4.72
2016-12-15T02:29:57.015Z,4.73
2016-12-15T02:30:56.997Z,4.7
2016-12-15T02:31:57.291Z,4.69
2016-12-15T02:32:56.962Z,4.62
2016-12-15T02:33:56.939Z,4.67
2016-12-15T02:34:56.919Z,4.62
2016-12-15T02:35:56.902Z,4.57
2016-12-15T02:36:56.880Z,4.67
2016-12-15T02:37:56.860Z,4.58
2016-12-15T02:38:56.845Z,4.52
2016-12-15T02:39:56.828Z,4.47
2016-12-15T02:40:56.802Z,4.54
2016-12-15T02:41:56.786Z,4.5
2016-12-15T02:42:56.774Z,4.44
2016-12-15T02:43:56.744Z,4.5
2016-12-15T02:44:56.731Z,4.46
2016-12-15T02:45:56.706Z,4.51
2016-12-15T02:46:57.031Z,4.42
2016-12-15T02:47:56.671Z,4.42
2016-12-15T02:48:56.653Z,4.34
2016-12-15T02:49:56.629Z,4.4
2016-12-15T02:50:56.612Z,4.43
2016-12-15T02:51:56.906Z,4.33
2016-12-15T02:52:56.576Z,4.36
2016-12-15T02:53:56.558Z,4.36
2016-12-15T02:54:56.538Z,4.39
2016-12-15T02:55:56.523Z,4.34
2016-12-15T02:56:56.809Z,4.32
2016-12-15T02:57:56.477Z,4.36
2016-12-15T02:58:56.460Z,4.29
2016-12-15T02:59:56.438Z,4.28
2016-12-15T03:00:56.418Z,4.25
2016-12-15T03:01:56.396Z,4.33
2016-12-15T03:02:56.382Z,4.33
2016-12-15T03:03:56.671Z,4.26
2016-12-15T03:04:56.348Z,4.32
2016-12-15T03:05:56.319Z,4.29
2016-12-15T03:06:56.311Z,4.24
2016-12-15T03:07:56.599Z,4.24
2016-12-15T03:08:56.269Z,4.22
2016-12-15T03:09:56.246Z,4.24
2016-12-15T03:10:56.228Z,4.25
2016-12-15T03:11:56.204Z,4.22
2016-12-15T03:12:56.500Z,4.25
2016-12-15T03:13:56.484Z,4.22
2016-12-15T03:14:56.146Z,4.24
2016-12-15T03:15:56.441Z,4.26
2016-12-15T03:16:56.109Z,4.26
2016-12-15T03:17:56.120Z,4.24
2016-12-15T03:18:56.073Z,4.22
2016-12-15T03:19:56.046Z,4.19
2016-12-15T03:20:56.033Z,4.19
2016-12-15T03:21:56.008Z,4.21
2016-12-15T03:22:55.993Z,4.16
2016-12-15T03:23:55.975Z,4.18
2016-12-15T03:24:55.952Z,4.19
2016-12-15T03:25:56.251Z,4.1
2016-12-15T03:26:55.920Z,4.18
2016-12-15T03:27:55.895Z,4.14
2016-12-15T03:28:55.880Z,4.1
2016-12-15T03:29:55.858Z,4.18
2016-12-15T03:30:55.833Z,4.14
2016-12-15T03:31:55.816Z,4.12
2016-12-15T03:32:55.799Z,4.08
2016-12-15T03:33:55.776Z,4.1
2016-12-15T03:34:56.070Z,4.14
2016-12-15T03:35:55.740Z,4.12
2016-12-15T03:36:55.715Z,4.12
2016-12-15T03:37:55.699Z,4.08
2016-12-15T03:38:55.680Z,3.94
2016-12-15T03:39:55.972Z,4.03
2016-12-15T03:40:55.956Z,3.97
2016-12-15T03:41:55.621Z,4.08
2016-12-15T03:42:55.600Z,3.98
2016-12-15T03:43:55.612Z,4.1
2016-12-15T03:44:55.871Z,4.03
2016-12-15T03:45:55.553Z,4.07
2016-12-15T03:46:55.526Z,4.04
2016-12-15T03:47:55.507Z,4.18
2016-12-15T03:48:55.482Z,4.06
2016-12-15T03:49:55.465Z,4.03
2016-12-15T03:50:55.449Z,4.12
2016-12-15T03:51:55.737Z,4.07
2016-12-15T03:52:55.404Z,4.04
2016-12-15T03:53:55.384Z,4.15
2016-12-15T03:54:55.365Z,4.04
2016-12-15T03:55:55.346Z,3.92
2016-12-15T03:56:55.325Z,4
2016-12-15T03:57:55.321Z,4.06
2016-12-15T03:58:55.287Z,4.03
2016-12-15T03:59:55.263Z,4.08
2016-12-15T04:00:55.246Z,4.03
2016-12-15T04:01:55.543Z,4.04
2016-12-15T04:02:55.207Z,4.06
2016-12-15T04:03:55.185Z,4.08
2016-12-15T04:04:55.168Z,4.04
2016-12-15T04:05:55.154Z,4.1
2016-12-15T04:06:55.181Z,4.06
2016-12-15T04:07:55.105Z,4.06
2016-12-15T04:08:55.091Z,4.04
2016-12-15T04:09:55.067Z,4.12
2016-12-15T04:10:55.370Z,4.03
2016-12-15T04:11:55.037Z,4.14
2016-12-15T04:12:55.017Z,4.08
2016-12-15T04:13:55.002Z,4.1
2016-12-15T04:14:54.970Z,4.03
2016-12-15T04:15:54.952Z,4.08
2016-12-15T04:16:54.931Z,4.1
2016-12-15T04:17:55.315Z,4.07
2016-12-15T04:18:55.205Z,4.08
2016-12-15T04:19:54.871Z,3.92
2016-12-15T04:20:54.853Z,4.14
2016-12-15T04:21:54.828Z,4.06
2016-12-15T04:22:54.811Z,4.07
2016-12-15T04:23:54.792Z,4.01
2016-12-15T04:24:54.770Z,3.97
2016-12-15T04:25:54.753Z,4
2016-12-15T04:26:54.740Z,3.98
2016-12-15T04:27:54.715Z,4.03
2016-12-15T04:28:54.753Z,3.98
2016-12-15T04:29:54.677Z,3.98
2016-12-15T04:30:54.657Z,4
2016-12-15T04:31:54.635Z,3.97
2016-12-15T04:32:54.934Z,3.97
2016-12-15T04:33:54.590Z,3.94
2016-12-15T04:34:54.574Z,3.96
2016-12-15T04:35:54.609Z,3.97
2016-12-15T04:36:54.537Z,3.89
2016-12-15T04:37:54.514Z,3.92
2016-12-15T04:38:54.503Z,3.9
2016-12-15T04:39:54.792Z,3.94
2016-12-15T04:40:54.457Z,3.97
2016-12-15T04:41:54.751Z,3.9
2016-12-15T04:42:54.412Z,4.03
2016-12-15T04:43:54.393Z,3.94
2016-12-15T04:44:54.376Z,3.97
2016-12-15T04:45:54.676Z,3.97
2016-12-15T04:46:54.339Z,3.94
2016-12-15T04:47:54.629Z,3.9
2016-12-15T04:48:54.307Z,4.01
2016-12-15T04:49:54.275Z,3.94
2016-12-15T04:50:54.885Z,4.01
2016-12-15T04:51:54.237Z,3.92
2016-12-15T04:52:54.221Z,3.98
2016-12-15T04:53:54.199Z,3.94
2016-12-15T04:54:54.177Z,3.92
2016-12-15T04:55:54.166Z,3.96
2016-12-15T04:56:54.149Z,3.97
2016-12-15T04:57:54.116Z,3.94
2016-12-15T04:58:54.095Z,3.94
2016-12-15T04:59:54.077Z,3.94
2016-12-15T05:00:54.059Z,3.92
2016-12-15T05:01:54.044Z,3.9
2016-12-15T05:02:54.072Z,3.88
2016-12-15T05:03:53.998Z,3.88
2016-12-15T05:04:53.978Z,3.83
2016-12-15T05:05:53.959Z,3.86
2016-12-15T05:06:54.255Z,3.86
2016-12-15T05:07:53.917Z,3.75
2016-12-15T05:08:53.910Z,3.75
2016-12-15T05:09:53.879Z,3.78
2016-12-15T05:10:53.862Z,3.75
2016-12-15T05:11:53.835Z,3.76
2016-12-15T05:12:53.814Z,3.67
2016-12-15T05:13:53.801Z,3.75
2016-12-15T05:14:53.779Z,3.68
2016-12-15T05:15:53.757Z,3.68
2016-12-15T05:16:53.735Z,3.64
2016-12-15T05:17:53.718Z,3.57
2016-12-15T05:18:53.712Z,3.6
2016-12-15T05:19:53.682Z,3.6
2016-12-15T05:20:53.971Z,3.61
2016-12-15T05:21:53.637Z,3.58
2016-12-15T05:22:53.614Z,3.62
2016-12-15T05:23:53.598Z,3.6
2016-12-15T05:24:53.584Z,3.58
2016-12-15T05:25:53.557Z,3.46
2016-12-15T05:26:53.542Z,3.53
2016-12-15T05:27:53.514Z,3.47
2016-12-15T05:28:53.810Z,3.47
2016-12-15T05:29:53.481Z,3.5
2016-12-15T05:30:53.770Z,3.5
2016-12-15T05:31:53.439Z,3.47
2016-12-15T05:32:53.418Z,3.4
2016-12-15T05:33:53.394Z,3.42
2016-12-15T05:34:53.381Z,3.43
2016-12-15T05:35:53.355Z,3.36
2016-12-15T05:36:53.340Z,3.36
2016-12-15T05:37:53.633Z,3.4
2016-12-15T05:38:53.298Z,3.28
2016-12-15T05:39:53.281Z,3.27
2016-12-15T05:40:53.264Z,3.24
2016-12-15T05:41:53.549Z,3.25
2016-12-15T05:42:53.221Z,3.27
2016-12-15T05:43:53.197Z,3.28
2016-12-15T05:44:53.177Z,3.33
2016-12-15T05:45:53.155Z,3.23
2016-12-15T05:46:53.135Z,3.28
2016-12-15T05:47:53.115Z,3.24
2016-12-15T05:48:53.410Z,3.21
2016-12-15T05:49:53.389Z,3.28
2016-12-15T05:50:53.057Z,3.27
2016-12-15T05:51:53.372Z,3.25
2016-12-15T05:52:53.048Z,3.23
2016-12-15T05:53:53.011Z,3.39
2016-12-15T05:54:53.310Z,3.3
2016-12-15T05:55:53.266Z,3.36
2016-12-15T05:56:52.947Z,3.4
2016-12-15T05:57:52.920Z,3.5
2016-12-15T05:58:52.891Z,3.49
2016-12-15T05:59:52.873Z,3.54
2016-12-15T06:00:53.186Z,3.53
2016-12-15T06:01:53.143Z,3.58
2016-12-15T06:02:52.815Z,3.6
2016-12-15T06:03:52.794Z,3.64
2016-12-15T06:04:52.776Z,3.7
2016-12-15T06:05:52.757Z,3.76
2016-12-15T06:06:52.734Z,3.75
2016-12-15T06:07:52.713Z,3.85
2016-12-15T06:08:52.692Z,3.88
2016-12-15T06:09:52.675Z,3.94
2016-12-15T06:10:52.661Z,4
2016-12-15T06:11:52.641Z,4.07
2016-12-15T06:12:52.618Z,3.98
2016-12-15T06:13:52.589Z,4.14
2016-12-15T06:14:52.576Z,4.04
2016-12-15T06:15:52.553Z,4.1
2016-12-15T06:16:52.875Z,4.18
2016-12-15T06:17:52.517Z,4.24
2016-12-15T06:18:52.493Z,4.24
2016-12-15T06:19:52.472Z,4.33
2016-12-15T06:20:52.455Z,4.33
2016-12-15T06:21:52.434Z,4.4
2016-12-15T06:22:52.418Z,4.43
2016-12-15T06:23:52.402Z,4.42
2016-12-15T06:24:52.380Z,4.46
2016-12-15T06:25:52.670Z,4.51
2016-12-15T06:26:52.348Z,4.58
2016-12-15T06:27:52.325Z,4.57
2016-12-15T06:28:52.303Z,4.58
2016-12-15T06:29:52.279Z,4.65
2016-12-15T06:30:52.261Z,4.65
2016-12-15T06:31:52.249Z,4.64
2016-12-15T06:32:52.219Z,4.72
2016-12-15T06:33:52.205Z,4.73
2016-12-15T06:34:52.500Z,4.72
2016-12-15T06:35:52.159Z,4.76
2016-12-15T06:36:52.150Z,4.8
2016-12-15T06:37:52.120Z,4.86
2016-12-15T06:38:52.104Z,4.88
2016-12-15T06:39:52.084Z,4.91
2016-12-15T06:40:52.064Z,4.86
2016-12-15T06:41:52.098Z,4.92
2016-12-15T06:42:52.027Z,4.95
2016-12-15T06:43:52.007Z,4.99
2016-12-15T06:44:52.310Z,5.09
2016-12-15T06:45:51.967Z,5.13
2016-12-15T06:46:51.951Z,5.09
2016-12-15T06:47:51.936Z,5.17
2016-12-15T06:48:51.907Z,5.14
2016-12-15T06:49:51.891Z,5.16
2016-12-15T06:50:51.874Z,5.25
2016-12-15T06:51:51.858Z,5.27
2016-12-15T06:52:51.844Z,5.25
2016-12-15T06:53:51.819Z,5.31
2016-12-15T06:54:51.790Z,5.3
2016-12-15T06:55:51.781Z,5.3
2016-12-15T06:56:51.762Z,5.25
2016-12-15T06:57:51.736Z,5.43
2016-12-15T06:58:51.722Z,5.49
2016-12-15T06:59:51.706Z,5.5
2016-12-15T07:00:51.684Z,5.49
2016-12-15T07:01:51.659Z,5.45
2016-12-15T07:02:51.639Z,5.48
2016-12-15T07:03:51.628Z,5.45
2016-12-15T07:04:52.236Z,5.38
2016-12-15T07:05:51.896Z,5.46
2016-12-15T07:06:51.567Z,5.49
2016-12-15T07:07:51.544Z,5.57
2016-12-15T07:08:51.524Z,5.59
2016-12-15T07:09:51.511Z,5.5
2016-12-15T07:10:52.619Z,5.59
2016-12-15T07:11:51.493Z,5.53
2016-12-15T07:12:51.454Z,5.59
2016-12-15T07:13:51.750Z,5.57
2016-12-15T07:14:51.417Z,5.59
2016-12-15T07:15:51.708Z,5.59
2016-12-15T07:16:51.373Z,5.6
2016-12-15T07:17:51.356Z,5.59
2016-12-15T07:18:51.340Z,5.64
2016-12-15T07:19:51.318Z,5.66
2016-12-15T07:20:51.341Z,5.7
2016-12-15T07:21:51.286Z,5.57
2016-12-15T07:22:51.262Z,5.64
2016-12-15T07:23:51.556Z,5.74
2016-12-15T07:24:51.539Z,5.67
2016-12-15T07:25:51.523Z,5.7
2016-12-15T07:26:51.188Z,5.57
2016-12-15T07:27:51.482Z,5.71
2016-12-15T07:28:51.154Z,5.71
2016-12-15T07:29:51.143Z,5.68
2016-12-15T07:30:51.113Z,5.67
2016-12-15T07:31:51.098Z,5.75
2016-12-15T07:32:51.085Z,5.77
2016-12-15T07:33:51.058Z,5.75
2016-12-15T07:34:51.040Z,5.77
2016-12-15T07:35:51.024Z,5.78
2016-12-15T07:36:51.010Z,5.74
2016-12-15T07:37:51.013Z,5.74
2016-12-15T07:38:50.968Z,5.75
2016-12-15T07:39:50.951Z,5.74
2016-12-15T07:40:51.242Z,5.81
2016-12-15T07:41:50.912Z,5.82
2016-12-15T07:42:50.892Z,5.83
2016-12-15T07:43:50.873Z,5.78
2016-12-15T07:44:50.860Z,5.81
2016-12-15T07:45:50.894Z,5.81
2016-12-15T07:46:51.129Z,5.82
2016-12-15T07:47:51.109Z,5.82
2016-12-15T07:48:50.821Z,5.75
2016-12-15T07:49:50.762Z,5.83
2016-12-15T07:50:50.745Z,5.82
2016-12-15T07:51:50.774Z,5.78
2016-12-15T07:52:50.714Z,5.86
2016-12-15T07:53:50.700Z,5.85
2016-12-15T07:54:50.992Z,5.86
2016-12-15T07:55:50.649Z,5.83
2016-12-15T07:56:50.633Z,5.89
2016-12-15T07:57:50.935Z,5.88
2016-12-15T07:58:50.594Z,5.88
2016-12-15T07:59:50.580Z,5.83
2016-12-15T08:00:50.561Z,5.88
2016-12-15T08:01:50.545Z,5.92
2016-12-15T08:02:50.522Z,5.92
2016-12-15T08:03:50.816Z,5.85
2016-12-15T08:04:50.494Z,5.89
2016-12-15T08:05:50.471Z,5.89
2016-12-15T08:06:50.780Z,5.88
2016-12-15T08:07:50.461Z,5.95
2016-12-15T08:08:50.743Z,5.92
2016-12-15T08:09:51.019Z,5.91
2016-12-15T08:10:50.378Z,5.91
2016-12-15T08:11:50.667Z,6
2016-12-15T08:12:50.338Z,5.91
2016-12-15T08:13:50.321Z,5.98
2016-12-15T08:14:50.313Z,5.89
2016-12-15T08:15:50.282Z,5.96
2016-12-15T08:16:50.587Z,5.92
2016-12-15T08:17:50.249Z,6
2016-12-15T08:18:50.427Z,5.92
2016-12-15T08:19:50.521Z,5.95
2016-12-15T08:20:50.188Z,6.04
2016-12-15T08:21:50.171Z,6
2016-12-15T08:22:50.159Z,5.95
2016-12-15T08:23:50.141Z,6
2016-12-15T08:24:50.119Z,5.95
2016-12-15T08:25:50.101Z,6
2016-12-15T08:26:50.075Z,6.1
2016-12-15T08:27:50.060Z,6.09
2016-12-15T08:28:50.074Z,6.06
2016-12-15T08:29:50.041Z,6.1
2016-12-15T08:30:50.016Z,6.11
2016-12-15T08:31:50.306Z,6.13
2016-12-15T08:32:49.972Z,6.11
2016-12-15T08:33:50.261Z,6.07
2016-12-15T08:34:49.990Z,6.11
2016-12-15T08:35:49.916Z,6.14
2016-12-15T08:36:49.902Z,6.11
2016-12-15T08:37:49.879Z,6.09
2016-12-15T08:38:49.865Z,6.16
2016-12-15T08:39:49.860Z,6.25
2016-12-15T08:40:49.841Z,6.21
2016-12-15T08:41:50.124Z,6.25
2016-12-15T08:42:49.793Z,6.25
2016-12-15T08:43:49.826Z,6.25
2016-12-15T08:44:49.759Z,6.28
2016-12-15T08:45:49.739Z,6.26
2016-12-15T08:46:49.720Z,6.28
2016-12-15T08:47:50.017Z,6.29
2016-12-15T08:48:49.680Z,6.29
2016-12-15T08:49:49.984Z,6.33
2016-12-15T08:50:49.967Z,6.33
2016-12-15T08:51:49.627Z,6.33
2016-12-15T08:52:49.611Z,6.29
2016-12-15T08:53:49.591Z,6.3
2016-12-15T08:54:49.895Z,6.3
2016-12-15T08:55:49.554Z,6.3
2016-12-15T08:56:49.855Z,6.33
2016-12-15T08:57:49.525Z,6.35
2016-12-15T08:58:49.816Z,6.29
2016-12-15T08:59:49.486Z,6.32
2016-12-15T09:00:49.470Z,6.28
2016-12-15T09:01:49.453Z,6.4
2016-12-15T09:02:49.431Z,6.41
2016-12-15T09:03:49.417Z,6.29
2016-12-15T09:04:49.714Z,6.36
2016-12-15T09:05:49.699Z,6.33
2016-12-15T09:06:49.370Z,6.4
2016-12-15T09:07:49.354Z,6.53
2016-12-15T09:08:49.327Z,6.33
2016-12-15T09:09:49.356Z,6.29
2016-12-15T09:10:49.601Z,6.46
2016-12-15T09:11:49.271Z,6.36
2016-12-15T09:12:49.259Z,6.47
2016-12-15T09:13:49.549Z,6.47
2016-12-15T09:14:49.247Z,6.54
2016-12-15T09:15:49.205Z,6.53
2016-12-15T09:16:49.504Z,6.53
2016-12-15T09:17:49.486Z,6.51
2016-12-15T09:18:49.159Z,6.5
2016-12-15T09:19:49.145Z,6.43
2016-12-15T09:20:49.116Z,6.54
2016-12-15T09:21:49.096Z,6.56
2016-12-15T09:22:49.080Z,6.59
2016-12-15T09:23:49.064Z,6.56
2016-12-15T09:24:49.356Z,6.53
2016-12-15T09:25:49.034Z,6.63
2016-12-15T09:26:49.319Z,6.51
2016-12-15T09:27:48.993Z,6.62
2016-12-15T09:28:48.972Z,6.63
2016-12-15T09:29:49.269Z,6.61
2016-12-15T09:30:48.937Z,6.73
2016-12-15T09:31:48.921Z,6.76
2016-12-15T09:32:48.904Z,6.73
2016-12-15T09:33:48.888Z,6.69
2016-12-15T09:34:48.875Z,6.79
2016-12-15T09:35:48.850Z,6.76
2016-12-15T09:36:49.154Z,6.73
2016-12-15T09:37:48.819Z,6.86
2016-12-15T09:38:48.799Z,6.81
2016-12-15T09:39:49.110Z,6.86
2016-12-15T09:40:49.081Z,6.89
2016-12-15T09:41:48.748Z,6.94
2016-12-15T09:42:49.045Z,6.86
2016-12-15T09:43:49.025Z,7.04
2016-12-15T09:44:48.697Z,7.02
2016-12-15T09:45:48.677Z,6.99
2016-12-15T09:46:48.698Z,7.04
2016-12-15T09:47:48.638Z,7.05
2016-12-15T09:48:48.625Z,7.05
2016-12-15T09:49:48.611Z,6.97
2016-12-15T09:50:48.594Z,7.01
2016-12-15T09:51:48.582Z,6.99
2016-12-15T09:52:48.556Z,7.07
2016-12-15T09:53:48.544Z,6.99
2016-12-15T09:54:48.526Z,7.05
2016-12-15T09:55:48.817Z,7.01
2016-12-15T09:56:48.487Z,7.08
2016-12-15T09:57:48.474Z,7.07
2016-12-15T09:58:48.452Z,6.99
2016-12-15T09:59:48.441Z,6.97
2016-12-15T10:00:48.420Z,7.08
2016-12-15T10:01:48.406Z,7.17
2016-12-15T10:02:48.711Z,7.15
2016-12-15T10:03:48.385Z,7.2
2016-12-15T10:04:48.353Z,7.32
2016-12-15T10:05:48.336Z,7.31
2016-12-15T10:06:48.316Z,7.23
2016-12-15T10:07:48.316Z,7.24
2016-12-15T10:08:48.619Z,7.41
2016-12-15T10:09:48.579Z,7.37
2016-12-15T10:10:48.589Z,7.44
2016-12-15T10:11:48.231Z,7.55
2016-12-15T10:12:48.220Z,7.56
2016-12-15T10:13:48.205Z,7.52
2016-12-15T10:14:48.180Z,7.67
2016-12-15T10:15:48.475Z,7.72
2016-12-15T10:16:48.151Z,7.81
2016-12-15T10:17:48.131Z,8.08
2016-12-15T10:18:48.313Z,8.48
2016-12-15T10:19:48.097Z,8.97
2016-12-15T10:20:48.086Z,9.28
2016-12-15T10:21:48.378Z,9.53
2016-12-15T10:22:48.368Z,9.67
2016-12-15T10:23:48.033Z,9.86
2016-12-15T10:24:48.019Z,9.85
2016-12-15T10:25:48.001Z,9.86
2016-12-15T10:26:47.988Z,9.73
2016-12-15T10:27:47.975Z,9.78
2016-12-15T10:28:47.955Z,9.82
2016-12-15T10:29:47.973Z,9.85
2016-12-15T10:30:48.244Z,9.89
2016-12-15T10:31:47.917Z,10.06
2016-12-15T10:32:47.896Z,10.19
2016-12-15T10:33:47.882Z,10.42
2016-12-15T10:34:48.186Z,10.51
2016-12-15T10:35:47.856Z,10.55
2016-12-15T10:36:47.844Z,10.56
2016-12-15T10:37:47.822Z,10.6
2016-12-15T10:38:48.125Z,10.52
2016-12-15T10:39:47.795Z,10.37
2016-12-15T10:40:48.095Z,10.1
2016-12-15T10:41:48.084Z,9.89
2016-12-15T10:42:47.764Z,9.63
2016-12-15T10:43:47.747Z,9.4
2016-12-15T10:44:48.048Z,9.25
2016-12-15T10:45:47.716Z,9.28
2016-12-15T10:46:48.018Z,9.09
2016-12-15T10:47:47.690Z,8.91
2016-12-15T10:48:47.681Z,8.93
2016-12-15T10:49:47.982Z,8.94
2016-12-15T10:50:47.649Z,8.96
2016-12-15T10:51:47.951Z,9.02
2016-12-15T10:52:47.937Z,9.16
2016-12-15T10:53:47.914Z,9.39
2016-12-15T10:54:47.600Z,9.56
2016-12-15T10:55:47.900Z,9.88
2016-12-15T10:56:47.567Z,9.94
2016-12-15T10:57:47.557Z,10.12
2016-12-15T10:58:47.540Z,10.21
2016-12-15T10:59:47.848Z,10.25
2016-12-15T11:00:47.831Z,10.01
2016-12-15T11:01:47.500Z,9.7
2016-12-15T11:02:47.493Z,9.86
2016-12-15T11:03:47.791Z,10.03
2016-12-15T11:04:47.464Z,9.79
2016-12-15T11:05:47.449Z,9.73
2016-12-15T11:06:47.438Z,9.75
2016-12-15T11:07:47.428Z,9.94
2016-12-15T11:08:47.441Z,10.04
2016-12-15T11:09:47.408Z,10.19
2016-12-15T11:10:47.387Z,10.21
2016-12-15T11:11:47.382Z,10.04
2016-12-15T11:12:47.387Z,10
2016-12-15T11:13:47.359Z,10.03
2016-12-15T11:14:47.337Z,10.21
2016-12-15T11:15:47.320Z,10.04
2016-12-15T11:16:47.316Z,9.97
2016-12-15T11:17:47.295Z,10.01
2016-12-15T11:18:47.284Z,9.99
2016-12-15T11:19:47.274Z,10
2016-12-15T11:20:47.256Z,9.93
2016-12-15T11:21:47.244Z,10.03
2016-12-15T11:22:47.235Z,10.18
2016-12-15T11:23:47.225Z,10.22
2016-12-15T11:24:47.212Z,10.22
2016-12-15T11:25:47.234Z,10.28
2016-12-15T11:26:47.184Z,10.18
2016-12-15T11:27:47.170Z,10.18
2016-12-15T11:28:47.204Z,10.06
2016-12-15T11:29:47.141Z,9.96
2016-12-15T11:30:47.133Z,9.94
2016-12-15T11:31:47.126Z,9.82
2016-12-15T11:32:47.106Z,9.71
2016-12-15T11:33:47.103Z,9.66
2016-12-15T11:34:47.078Z,9.53
2016-12-15T11:35:47.068Z,9.53
2016-12-15T11:36:47.050Z,9.57
2016-12-15T11:37:47.351Z,9.57
2016-12-15T11:38:47.023Z,9.57
2016-12-15T11:39:47.012Z,9.48
2016-12-15T11:40:46.997Z,9.46
2016-12-15T11:41:46.989Z,9.46
2016-12-15T11:42:46.977Z,9.42
2016-12-15T11:43:46.956Z,9.39
2016-12-15T11:44:47.267Z,9.42
2016-12-15T11:45:46.946Z,9.48
2016-12-15T11:46:47.225Z,9.56
2016-12-15T11:47:47.212Z,9.42
2016-12-15T11:48:47.203Z,9.31
2016-12-15T11:49:46.876Z,9.25
2016-12-15T11:50:46.860Z,9.35
2016-12-15T11:51:46.845Z,9.43
2016-12-15T11:52:46.839Z,9.39
2016-12-15T11:53:47.131Z,9.49
2016-12-15T11:54:46.853Z,9.35
2016-12-15T11:55:46.791Z,9.4
2016-12-15T11:56:46.775Z,9.42
2016-12-15T11:57:46.763Z,9.39
2016-12-15T11:58:47.062Z,9.58
2016-12-15T11:59:46.736Z,9.73
2016-12-15T12:00:47.035Z,9.71
2016-12-15T12:01:46.718Z,9.76
2016-12-15T12:02:47.012Z,9.89
2016-12-15T12:03:46.680Z,9.97
2016-12-15T12:04:46.985Z,10.06
2016-12-15T12:05:46.968Z,10.25
2016-12-15T12:06:46.636Z,10.26
2016-12-15T12:07:46.678Z,10.18
2016-12-15T12:08:46.610Z,10.19
2016-12-15T12:09:46.598Z,10.26
2016-12-15T12:10:46.587Z,10.39
2016-12-15T12:11:46.886Z,10.53
2016-12-15T12:12:46.560Z,10.91
2016-12-15T12:13:46.546Z,11.41
2016-12-15T12:14:46.535Z,11.68
2016-12-15T12:15:46.524Z,12.15
2016-12-15T12:16:46.828Z,12.52
2016-12-15T12:17:46.947Z,12.63
2016-12-15T12:18:46.702Z,12.67
2016-12-15T12:19:46.486Z,12.87
2016-12-15T12:20:46.477Z,13.21
2016-12-15T12:21:46.464Z,13.37
2016-12-15T12:22:46.460Z,13.77
2016-12-15T12:23:46.757Z,13.94
2016-12-15T12:24:46.442Z,14.19
2016-12-15T12:25:46.431Z,14.35
2016-12-15T12:26:46.422Z,14.57
2016-12-15T12:27:46.723Z,14.6
2016-12-15T12:28:46.443Z,14.57
2016-12-15T12:29:46.405Z,14.72
2016-12-15T12:30:46.393Z,14.91
2016-12-15T12:31:46.385Z,15.12
2016-12-15T12:32:46.379Z,15.3
2016-12-15T12:33:46.384Z,15.51
2016-12-15T12:34:46.366Z,15.54
2016-12-15T12:35:46.363Z,15.74
2016-12-15T12:36:46.355Z,15.79
2016-12-15T12:37:46.348Z,15.54
2016-12-15T12:38:46.661Z,15.11
2016-12-15T12:39:46.338Z,14.93
2016-12-15T12:40:46.332Z,14.69
2016-12-15T12:41:46.326Z,14.87
2016-12-15T12:42:46.632Z,14.95
2016-12-15T12:43:46.627Z,14.93
2016-12-15T12:44:46.318Z,15.27
2016-12-15T12:45:46.304Z,15.51
2016-12-15T12:46:46.619Z,15.72
2016-12-15T12:47:46.305Z,15.75
2016-12-15T12:48:46.600Z,15.52
2016-12-15T12:49:46.607Z,15.26
2016-12-15T12:50:46.275Z,14.78
2016-12-15T12:51:46.275Z,14.78
2016-12-15T12:52:46.591Z,14.49
2016-12-15T12:53:46.264Z,14.32
2016-12-15T12:54:46.259Z,14.06
2016-12-15T12:55:46.253Z,13.76
2016-12-15T12:56:46.247Z,13.4
2016-12-15T12:57:46.242Z,13.03
2016-12-15T12:58:46.238Z,12.85
2016-12-15T12:59:46.228Z,12.66
2016-12-15T13:00:46.228Z,12.59
2016-12-15T13:01:46.222Z,12.42
2016-12-15T13:02:46.524Z,12.44
2016-12-15T13:03:46.208Z,12.34
2016-12-15T13:04:46.194Z,12.37
2016-12-15T13:05:46.217Z,12.31
2016-12-15T13:06:46.184Z,12.16
2016-12-15T13:07:46.171Z,11.96
2016-12-15T13:08:46.166Z,11.67
2016-12-15T13:09:46.471Z,11.52
2016-12-15T13:10:46.146Z,11.46
2016-12-15T13:11:46.142Z,11.52
2016-12-15T13:12:46.159Z,11.39
2016-12-15T13:13:46.138Z,11.41
2016-12-15T13:14:46.131Z,11.93
2016-12-15T13:15:46.110Z,12.02
2016-12-15T13:16:46.106Z,12.46
2016-12-15T13:17:46.095Z,12.85
2016-12-15T13:18:46.081Z,13.3